Time;durP1;ratioP1;P1;durP2;ratioP2;P2;SDS_P1;SDS_P2;PMS_P1;PMS_P2;Temp;Humidity;BMP_temperature;BMP_pressure;BME280_temperature;BME280_humidity;BME280_pressure;Samples;Min_cycle;Max_cycle;Signal;HPM_P1;HPM_P2
2022/06/11 00:01:49;;;;;;;5.97;1.95;;;20.00;1.00;;;;;;5115700;27;20189;-63
2022/06/11 00:04:27;;;;;;;5.25;1.70;;;19.90;1.00;;;;;;5084675;27;20247;-62
2022/06/11 00:06:58;;;;;;;5.38;2.20;;;19.90;1.00;;;;;;5119850;27;20203;-63
2022/06/11 00:09:26;;;;;;;8.30;2.63;;;19.90;1.00;;;;;;5116457;27;20242;-63
2022/06/11 00:11:54;;;;;;;3.67;1.90;;;19.90;1.00;;;;;;5114148;27;20198;-63
2022/06/11 00:14:24;;;;;;;4.03;1.95;;;20.00;1.00;;;;;;5117123;27;20250;-63
2022/06/11 00:16:51;;;;;;;5.97;1.98;;;20.00;1.00;;;;;;5114862;28;20997;-63
2022/06/11 00:19:20;;;;;;;5.68;2.22;;;20.00;1.00;;;;;;5115992;28;20250;-64
2022/06/11 00:21:50;;;;;;;5.90;2.22;;;19.90;1.00;;;;;;5093901;28;20211;-64
2022/06/11 00:24:19;;;;;;;8.13;2.00;;;19.90;1.00;;;;;;5118184;28;20181;-63
2022/06/11 00:26:47;;;;;;;5.55;2.00;;;19.90;1.00;;;;;;5120591;28;20236;-63
2022/06/11 00:29:15;;;;;;;6.82;2.08;;;20.00;1.00;;;;;;5116197;28;20235;-64
2022/06/11 00:31:43;;;;;;;5.93;2.38;;;20.00;1.00;;;;;;5116993;28;20590;-63
2022/06/11 00:34:11;;;;;;;4.50;2.03;;;20.00;1.00;;;;;;5097189;28;20200;-63
2022/06/11 00:36:39;;;;;;;7.95;4.80;;;20.10;1.00;;;;;;5116439;28;20239;-63
2022/06/11 00:39:07;;;;;;;11.63;3.75;;;20.10;1.00;;;;;;5114447;28;20687;-63
2022/06/11 00:41:38;;;;;;;8.85;5.82;;;20.10;1.00;;;;;;5116252;28;20194;-63
2022/06/11 00:44:05;;;;;;;19.92;14.23;;;20.20;1.00;;;;;;5072616;28;20261;-64
2022/06/11 00:46:41;;;;;;;17.77;12.50;;;20.30;1.00;;;;;;5116197;28;20193;-63
2022/06/11 00:49:28;;;;;;;12.38;9.32;;;20.30;1.00;;;;;;5084417;28;20598;-63
2022/06/11 00:52:09;;;;;;;14.80;10.43;;;20.20;1.00;;;;;;5117590;28;20196;-61
2022/06/11 00:54:39;;;;;;;5.82;3.38;;;20.20;1.00;;;;;;5114242;28;20266;-63
2022/06/11 00:57:07;;;;;;;5.95;3.38;;;20.20;1.00;;;;;;5097932;28;20232;-63
2022/06/11 00:59:40;;;;;;;9.65;3.33;;;20.20;1.00;;;;;;5096126;28;20235;-63
2022/06/11 01:02:07;;;;;;;8.50;2.13;;;20.10;1.00;;;;;;5113719;28;20258;-63
2022/06/11 01:04:55;;;;;;;4.63;2.35;;;20.00;1.00;;;;;;5103040;27;20201;-63
2022/06/11 01:07:57;;;;;;;5.93;2.35;;;20.00;1.00;;;;;;5123294;27;20193;-63
2022/06/11 01:10:59;;;;;;;5.78;3.67;;;19.90;1.00;;;;;;5124259;27;20257;-63
2022/06/11 01:13:52;;;;;;;5.90;2.20;;;19.90;1.00;;;;;;5125364;27;20281;-63
2022/06/11 01:16:57;;;;;;;6.80;2.28;;;19.90;1.00;;;;;;5121927;27;20194;-65
2022/06/11 01:19:41;;;;;;;6.32;1.90;;;19.90;1.00;;;;;;5109874;27;20341;-64
2022/06/11 01:22:47;;;;;;;5.93;2.20;;;19.90;1.00;;;;;;5123223;27;20238;-63
2022/06/11 01:25:32;;;;;;;5.93;1.92;;;19.90;1.00;;;;;;5121082;27;20235;-63
2022/06/11 01:28:08;;;;;;;5.78;1.98;;;19.80;1.00;;;;;;5121475;27;20707;-63
2022/06/11 01:31:01;;;;;;;4.22;2.00;;;19.80;1.00;;;;;;5098731;27;20203;-64
2022/06/11 01:33:58;;;;;;;7.88;2.70;;;19.80;1.00;;;;;;5095645;27;20755;-63
2022/06/11 01:36:29;;;;;;;5.55;2.17;;;19.80;1.00;;;;;;5019271;27;20251;-64
2022/06/11 01:39:05;;;;;;;7.72;2.83;;;19.80;1.00;;;;;;5104105;27;20671;-63
2022/06/11 01:41:44;;;;;;;4.68;2.25;;;19.80;1.00;;;;;;5120432;27;20779;-65
2022/06/11 01:44:25;;;;;;;5.90;2.45;;;19.80;1.00;;;;;;5122905;27;20209;-63
2022/06/11 01:46:59;;;;;;;6.55;2.35;;;19.80;1.00;;;;;;5091650;27;20215;-63
2022/06/11 01:49:28;;;;;;;4.65;2.28;;;19.80;1.00;;;;;;5106149;27;20672;-64
2022/06/11 01:52:32;;;;;;;6.35;2.05;;;19.70;1.00;;;;;;5116881;27;20181;-64
2022/06/11 01:55:17;;;;;;;2.80;2.10;;;19.70;1.00;;;;;;5119573;27;20227;-63
2022/06/11 01:58:07;;;;;;;5.00;2.20;;;19.60;1.00;;;;;;5103900;27;20196;-62
2022/06/11 02:00:38;;;;;;;5.25;2.47;;;19.60;1.00;;;;;;5120005;27;20220;-62
2022/06/11 02:03:25;;;;;;;5.53;2.60;;;19.60;1.00;;;;;;5121924;27;20217;-63
2022/06/11 02:06:01;;;;;;;6.85;2.53;;;19.60;1.00;;;;;;5123488;27;20204;-63
2022/06/11 02:08:46;;;;;;;6.28;2.22;;;19.60;1.00;;;;;;5120568;27;20192;-63
2022/06/11 02:11:37;;;;;;;7.07;2.80;;;19.60;1.00;;;;;;5123493;27;20644;-63
2022/06/11 02:14:04;;;;;;;6.90;2.47;;;19.60;1.00;;;;;;5124814;27;20596;-63
2022/06/11 02:16:41;;;;;;;5.78;2.35;;;19.70;1.00;;;;;;5122470;27;20210;-63
2022/06/11 02:19:14;;;;;;;8.70;2.10;;;19.70;1.00;;;;;;5123720;27;20267;-63
2022/06/11 02:21:49;;;;;;;4.68;2.20;;;19.60;1.00;;;;;;5121270;27;20676;-63
2022/06/11 02:24:28;;;;;;;5.32;2.88;;;19.60;1.00;;;;;;5124524;27;20185;-64
2022/06/11 02:27:01;;;;;;;7.32;2.25;;;19.50;1.00;;;;;;5124356;27;20189;-64
2022/06/11 02:29:31;;;;;;;6.75;2.40;;;19.50;1.00;;;;;;5106596;27;20609;-63
2022/06/11 02:32:05;;;;;;;8.02;2.72;;;19.50;1.00;;;;;;5121450;27;20194;-63
2022/06/11 02:34:32;;;;;;;6.65;2.40;;;19.60;1.00;;;;;;5120325;27;20710;-65
2022/06/11 02:37:15;;;;;;;5.57;2.45;;;19.60;1.00;;;;;;5115901;27;20704;-63
2022/06/11 02:39:43;;;;;;;8.27;2.35;;;19.50;1.00;;;;;;5115764;27;20217;-64
2022/06/11 02:42:15;;;;;;;6.53;2.40;;;19.50;1.00;;;;;;5119094;27;20193;-63
2022/06/11 02:44:42;;;;;;;5.05;2.60;;;19.50;1.00;;;;;;5120471;27;20196;-63
2022/06/11 02:47:11;;;;;;;5.47;2.70;;;19.50;1.00;;;;;;5098888;27;20209;-63
2022/06/11 02:49:39;;;;;;;5.88;2.47;;;19.40;1.00;;;;;;5121331;27;20580;-63
2022/06/11 02:52:14;;;;;;;5.80;2.45;;;19.50;1.00;;;;;;5117772;27;20702;-63
2022/06/11 02:54:43;;;;;;;6.13;2.42;;;19.40;1.00;;;;;;5119503;27;20200;-63
2022/06/11 02:57:14;;;;;;;6.15;2.58;;;19.40;1.00;;;;;;5119950;27;20201;-63
2022/06/11 02:59:43;;;;;;;4.18;2.35;;;19.30;1.00;;;;;;5117210;27;20210;-63
2022/06/11 03:02:11;;;;;;;6.18;2.70;;;19.30;1.00;;;;;;5103466;27;21142;-62
2022/06/11 03:04:38;;;;;;;10.05;2.80;;;19.30;1.00;;;;;;5101954;27;20272;-63
2022/06/11 03:07:08;;;;;;;8.23;2.90;;;19.30;1.00;;;;;;5119914;27;20197;-63
2022/06/11 03:09:38;;;;;;;6.85;2.40;;;19.30;1.00;;;;;;5084298;27;20216;-63
2022/06/11 03:12:07;;;;;;;6.93;2.40;;;19.30;1.00;;;;;;5082766;27;20197;-63
2022/06/11 03:14:34;;;;;;;6.30;2.50;;;19.30;1.00;;;;;;5117225;27;20197;-63
2022/06/11 03:17:02;;;;;;;5.97;2.33;;;19.20;1.00;;;;;;5116366;27;20286;-64
2022/06/11 03:19:29;;;;;;;5.32;2.58;;;19.20;1.00;;;;;;5117140;27;20229;-62
2022/06/11 03:21:57;;;;;;;6.82;3.05;;;19.10;1.00;;;;;;5118287;27;20186;-63
2022/06/11 03:24:26;;;;;;;7.53;2.60;;;19.10;1.00;;;;;;5100018;27;20193;-63
2022/06/11 03:26:54;;;;;;;5.57;2.60;;;19.00;1.00;;;;;;5120073;27;20238;-64
2022/06/11 03:29:22;;;;;;;5.20;2.67;;;19.00;1.00;;;;;;5086817;27;20249;-63
2022/06/11 03:31:50;;;;;;;3.45;2.30;;;19.00;1.00;;;;;;5101366;27;20189;-63
2022/06/11 03:34:17;;;;;;;6.30;2.63;;;19.00;1.00;;;;;;5115602;27;20194;-62
2022/06/11 03:36:46;;;;;;;7.35;2.80;;;19.10;1.00;;;;;;5100783;28;20250;-64
2022/06/11 03:39:15;;;;;;;5.85;2.85;;;19.00;1.00;;;;;;5118224;27;20694;-63
2022/06/11 03:41:43;;;;;;;5.70;2.67;;;19.10;1.00;;;;;;5118643;27;20559;-64
2022/06/11 03:44:11;;;;;;;6.35;2.40;;;19.10;1.00;;;;;;5081213;27;20211;-63
2022/06/11 03:46:38;;;;;;;9.93;3.08;;;19.10;1.00;;;;;;5101250;27;20205;-63
2022/06/11 03:49:06;;;;;;;6.40;2.42;;;19.30;1.00;;;;;;5098134;27;20197;-64
2022/06/11 03:51:33;;;;;;;7.45;2.63;;;19.30;1.00;;;;;;5114202;27;20190;-64
2022/06/11 03:54:01;;;;;;;7.60;2.30;;;19.20;1.00;;;;;;5115462;27;20289;-63
2022/06/11 03:56:28;;;;;;;5.30;2.75;;;19.30;1.00;;;;;;5116268;27;20194;-61
2022/06/11 03:58:55;;;;;;;5.28;2.50;;;19.30;1.00;;;;;;5100211;27;20201;-64
2022/06/11 04:01:23;;;;;;;7.70;3.42;;;19.30;1.00;;;;;;5101792;27;20241;-63
2022/06/11 04:03:55;;;;;;;6.32;2.97;;;19.40;1.00;;;;;;5095910;27;20209;-64
2022/06/11 04:06:34;;;;;;;10.23;2.80;;;19.50;1.00;;;;;;5119982;27;20194;-63
2022/06/11 04:09:04;;;;;;;8.93;3.42;;;19.60;1.00;;;;;;5085917;28;20209;-62
2022/06/11 04:11:31;;;;;;;6.88;3.13;;;19.60;1.00;;;;;;5117875;28;20242;-64
2022/06/11 04:13:59;;;;;;;6.05;3.20;;;19.60;1.00;;;;;;5116303;27;20189;-66
2022/06/11 04:16:30;;;;;;;8.57;3.03;;;19.60;1.00;;;;;;5102123;28;20201;-63
2022/06/11 04:19:00;;;;;;;4.85;3.20;;;19.60;1.00;;;;;;5117304;28;20236;-64
2022/06/11 04:21:29;;;;;;;8.00;3.20;;;19.70;1.00;;;;;;5102369;28;20262;-64
2022/06/11 04:23:58;;;;;;;6.53;3.50;;;19.80;1.00;;;;;;5116146;28;20219;-63
2022/06/11 04:26:29;;;;;;;5.22;3.53;;;19.80;1.00;;;;;;5120374;28;20771;-64
2022/06/11 04:28:57;;;;;;;6.40;3.38;;;20.00;1.00;;;;;;5084465;28;20218;-64
2022/06/11 04:31:24;;;;;;;4.63;3.38;;;19.90;1.00;;;;;;5102891;28;20185;-64
2022/06/11 04:33:52;;;;;;;6.82;3.10;;;20.00;1.00;;;;;;5112101;28;20197;-64
2022/06/11 04:36:21;;;;;;;5.68;3.00;;;19.90;1.00;;;;;;5117673;28;20249;-63
2022/06/11 04:38:49;;;;;;;5.95;3.45;;;19.90;1.00;;;;;;5082718;28;20224;-63
2022/06/11 04:41:16;;;;;;;5.82;3.22;;;20.10;1.00;;;;;;5103020;27;20844;-64
2022/06/11 04:43:43;;;;;;;7.43;3.47;;;20.30;1.00;;;;;;5084555;27;20189;-64
2022/06/11 04:46:11;;;;;;;6.28;3.25;;;20.50;1.00;;;;;;5120338;27;20249;-64
2022/06/11 04:48:39;;;;;;;8.98;3.30;;;20.70;1.00;;;;;;5100918;27;20192;-63
2022/06/11 04:51:08;;;;;;;8.88;3.15;;;20.90;1.00;;;;;;5121484;27;20663;-63
2022/06/11 04:53:35;;;;;;;7.68;3.05;;;21.20;1.00;;;;;;5120744;27;20202;-63
2022/06/11 04:56:02;;;;;;;6.05;3.20;;;21.40;1.00;;;;;;5102967;27;20679;-64
2022/06/11 04:58:29;;;;;;;6.88;3.03;;;21.40;99.90;;;;;;5105869;27;20196;-63
2022/06/11 05:00:56;;;;;;;6.82;3.05;;;21.40;99.90;;;;;;5098365;27;20221;-63
2022/06/11 05:03:23;;;;;;;8.73;3.05;;;21.70;1.00;;;;;;5102980;27;20243;-62
2022/06/11 05:05:50;;;;;;;5.97;2.58;;;23.10;99.90;;;;;;5120750;27;20191;-63
2022/06/11 05:08:18;;;;;;;7.32;2.72;;;23.90;99.90;;;;;;5101900;27;20558;-64
2022/06/11 05:10:45;;;;;;;4.40;2.80;;;23.90;99.90;;;;;;5117769;27;20337;-62
2022/06/11 05:13:12;;;;;;;6.82;2.60;;;24.40;99.90;;;;;;5121096;27;20207;-62
2022/06/11 05:15:44;;;;;;;7.28;2.70;;;24.90;99.90;;;;;;5119826;27;20209;-63
2022/06/11 05:18:14;;;;;;;6.60;2.40;;;25.00;99.90;;;;;;5089262;27;20275;-63
2022/06/11 05:20:41;;;;;;;7.10;2.60;;;25.60;99.90;;;;;;5118082;27;20213;-64
2022/06/11 05:23:09;;;;;;;8.95;2.70;;;26.40;99.90;;;;;;5117641;27;20193;-65
2022/06/11 05:25:38;;;;;;;7.30;2.40;;;27.00;99.90;;;;;;5119249;27;20189;-63
2022/06/11 05:28:08;;;;;;;6.70;2.80;;;26.90;99.90;;;;;;5098860;27;20186;-63
2022/06/11 05:30:35;;;;;;;5.80;2.47;;;27.00;99.90;;;;;;5100774;27;20723;-64
2022/06/11 05:33:03;;;;;;;6.15;2.35;;;28.60;99.90;;;;;;5115727;27;20201;-64
2022/06/11 05:35:32;;;;;;;5.43;2.60;;;28.00;99.90;;;;;;5119324;27;20196;-63
2022/06/11 05:38:03;;;;;;;5.40;2.22;;;29.00;99.90;;;;;;5114574;27;20220;-63
2022/06/11 05:40:35;;;;;;;6.45;2.40;;;29.10;99.90;;;;;;5113045;27;20213;-63
2022/06/11 05:43:02;;;;;;;5.75;2.55;;;30.40;99.90;;;;;;5114249;27;20269;-63
2022/06/11 05:45:33;;;;;;;5.60;3.00;;;31.10;99.90;;;;;;5076601;27;20212;-64
2022/06/11 05:48:06;;;;;;;6.72;2.90;;;31.60;99.90;;;;;;5114696;27;20194;-63
2022/06/11 05:50:36;;;;;;;5.25;2.72;;;30.10;99.90;;;;;;5116029;27;20221;-63
2022/06/11 05:53:04;;;;;;;7.25;2.92;;;30.80;99.90;;;;;;5116552;27;20216;-63
2022/06/11 05:55:34;;;;;;;5.68;2.50;;;30.80;99.90;;;;;;5116248;27;20209;-63
2022/06/11 05:58:03;;;;;;;7.18;2.30;;;31.70;99.90;;;;;;5114055;27;20193;-63
2022/06/11 06:00:32;;;;;;;7.40;2.17;;;32.20;99.90;;;;;;5117019;27;20209;-63
2022/06/11 06:02:59;;;;;;;4.93;2.45;;;32.10;99.90;;;;;;5111604;27;20241;-64
2022/06/11 06:05:29;;;;;;;4.80;2.33;;;32.20;99.90;;;;;;5098816;27;20202;-63
2022/06/11 06:07:56;;;;;;;2.85;1.92;;;32.00;99.90;;;;;;5096079;27;20192;-65
2022/06/11 06:10:24;;;;;;;4.00;2.15;;;32.00;99.90;;;;;;5111372;27;20312;-65
2022/06/11 06:12:51;;;;;;;4.47;2.10;;;31.50;99.90;;;;;;5115210;27;20243;-64
2022/06/11 06:15:25;;;;;;;5.25;1.88;;;30.80;99.90;;;;;;5115798;27;20201;-64
2022/06/11 06:17:53;;;;;;;4.97;2.10;;;33.10;99.90;;;;;;5115609;27;20237;-64
2022/06/11 06:20:22;;;;;;;5.97;2.10;;;33.40;99.90;;;;;;5096714;27;20209;-64
2022/06/11 06:22:50;;;;;;;7.75;2.10;;;33.00;99.90;;;;;;5096446;27;20220;-64
2022/06/11 06:25:21;;;;;;;4.53;1.83;;;33.60;99.90;;;;;;5097064;27;20243;-64
2022/06/11 06:27:48;;;;;;;6.05;2.30;;;34.60;99.90;;;;;;5114651;27;20181;-65
2022/06/11 06:30:17;;;;;;;3.83;1.83;;;34.80;99.90;;;;;;5115106;27;20200;-64
2022/06/11 06:32:44;;;;;;;7.07;1.83;;;35.00;99.90;;;;;;5114973;27;20205;-63
2022/06/11 06:35:11;;;;;;;5.68;1.85;;;34.90;99.90;;;;;;5079949;27;20262;-63
2022/06/11 06:37:38;;;;;;;2.67;1.50;;;36.30;99.90;;;;;;5116661;27;20220;-64
2022/06/11 06:40:06;;;;;;;3.50;1.63;;;36.10;99.90;;;;;;5110893;27;20194;-64
2022/06/11 06:42:33;;;;;;;2.50;1.55;;;35.10;99.90;;;;;;5083443;27;20193;-64
2022/06/11 06:45:01;;;;;;;4.45;1.60;;;34.30;99.90;;;;;;5096298;27;20663;-64
2022/06/11 06:47:27;;;;;;;4.32;1.73;;;32.50;99.90;;;;;;5116109;27;20557;-64
2022/06/11 06:49:54;;;;;;;4.30;1.70;;;30.60;99.90;;;;;;5095420;27;20201;-63
2022/06/11 06:52:22;;;;;;;3.53;1.70;;;29.60;99.90;;;;;;5117931;27;20184;-63
2022/06/11 06:54:49;;;;;;;7.38;2.30;;;29.20;99.90;;;;;;5114740;27;20197;-65
2022/06/11 06:57:16;;;;;;;6.45;2.20;;;29.10;99.90;;;;;;5097345;27;20725;-62
2022/06/11 06:59:43;;;;;;;4.50;2.08;;;28.60;99.90;;;;;;5112326;27;20205;-64
2022/06/11 07:02:16;;;;;;;6.35;2.10;;;27.50;99.90;;;;;;5106792;27;20282;-63
2022/06/11 07:04:43;;;;;;;7.28;1.55;;;27.10;99.90;;;;;;5087306;27;20609;-63
2022/06/11 07:07:15;;;;;;;6.43;2.40;;;26.80;99.90;;;;;;5117266;27;20193;-63
2022/06/11 07:09:42;;;;;;;4.65;2.33;;;26.40;99.90;;;;;;5117144;27;20332;-62
2022/06/11 07:12:09;;;;;;;7.97;2.30;;;26.10;99.90;;;;;;5113394;27;20526;-63
2022/06/11 07:14:37;;;;;;;4.93;1.75;;;26.10;99.90;;;;;;5097813;28;20214;-63
2022/06/11 07:17:07;;;;;;;6.55;2.08;;;25.80;99.90;;;;;;5099781;27;20667;-63
2022/06/11 07:19:44;;;;;;;4.57;2.10;;;25.90;99.90;;;;;;5114849;27;20233;-63
2022/06/11 07:22:28;;;;;;;4.93;2.28;;;25.70;99.90;;;;;;5099648;27;20204;-64
2022/06/11 07:24:54;;;;;;;2.60;1.77;;;25.00;99.90;;;;;;5086711;27;20265;-62
2022/06/11 07:27:25;;;;;;;5.50;2.17;;;25.20;99.90;;;;;;5120884;27;20189;-63
2022/06/11 07:30:02;;;;;;;7.57;2.17;;;24.80;99.90;;;;;;5102732;27;20193;-64
2022/06/11 07:32:35;;;;;;;4.45;1.92;;;24.80;99.90;;;;;;5121875;27;20185;-64
2022/06/11 07:35:07;;;;;;;5.95;2.03;;;25.00;99.90;;;;;;5120693;27;20221;-65
2022/06/11 07:37:35;;;;;;;4.25;2.15;;;25.30;99.90;;;;;;5087347;27;20224;-63
2022/06/11 07:40:05;;;;;;;3.25;2.10;;;24.80;99.90;;;;;;5115758;27;20212;-63
2022/06/11 07:42:32;;;;;;;4.05;1.90;;;25.00;99.90;;;;;;5119225;27;20189;-62
2022/06/11 07:44:59;;;;;;;4.63;2.13;;;24.90;99.90;;;;;;5102340;27;20250;-63
2022/06/11 07:50:15;;;;;;;4.38;2.47;;;25.30;99.90;;;;;;5100601;28;20262;-63
2022/06/11 07:52:43;;;;;;;5.90;2.40;;;24.80;99.90;;;;;;5118873;27;20274;-64
2022/06/11 07:55:11;;;;;;;3.17;1.80;;;25.90;99.90;;;;;;5104233;28;20200;-63
2022/06/11 07:57:39;;;;;;;5.32;2.42;;;26.20;99.90;;;;;;5116071;27;20221;-62
2022/06/11 08:00:11;;;;;;;4.30;2.13;;;26.50;99.90;;;;;;5100161;27;20219;-63
2022/06/11 08:02:43;;;;;;;6.25;2.90;;;26.20;99.90;;;;;;5119565;27;20202;-63
2022/06/11 08:05:10;;;;;;;3.42;1.90;;;27.30;99.90;;;;;;5093557;28;20231;-64
2022/06/11 08:07:37;;;;;;;4.82;2.22;;;28.90;99.90;;;;;;5094828;27;20555;-63
2022/06/11 08:10:04;;;;;;;2.92;2.15;;;29.30;99.90;;;;;;5082505;27;20703;-63
2022/06/11 08:12:31;;;;;;;3.60;2.20;;;29.70;99.90;;;;;;5098184;27;20204;-63
2022/06/11 08:14:58;;;;;;;4.88;2.40;;;29.80;99.90;;;;;;5118847;28;20202;-64
2022/06/11 08:17:31;;;;;;;4.18;2.40;;;28.80;99.90;;;;;;5118840;27;20219;-63
2022/06/11 08:19:58;;;;;;;4.80;2.50;;;27.80;99.90;;;;;;5114353;28;20540;-63
2022/06/11 08:22:26;;;;;;;5.28;2.42;;;27.00;99.90;;;;;;5110673;28;21132;-63
2022/06/11 08:24:53;;;;;;;4.68;2.35;;;26.30;99.90;;;;;;5118279;28;20197;-62
2022/06/11 08:27:20;;;;;;;4.13;2.15;;;27.20;99.90;;;;;;5121440;28;20279;-63
2022/06/11 08:29:47;;;;;;;5.70;2.40;;;27.20;99.90;;;;;;5093597;28;20204;-64
2022/06/11 08:32:14;;;;;;;7.88;2.55;;;26.40;99.90;;;;;;5109944;28;20193;-63
2022/06/11 08:34:44;;;;;;;7.28;2.30;;;26.20;99.90;;;;;;5111735;28;20194;-62
2022/06/11 08:37:13;;;;;;;5.68;2.35;;;26.50;99.90;;;;;;5100188;28;20202;-63
2022/06/11 08:39:40;;;;;;;4.25;2.35;;;26.80;99.90;;;;;;5115780;28;20642;-63
2022/06/11 08:42:24;;;;;;;7.10;2.58;;;26.40;99.90;;;;;;5119602;28;20253;-63
2022/06/11 08:44:51;;;;;;;4.53;2.58;;;25.50;99.90;;;;;;5118754;28;20239;-62
2022/06/11 08:47:21;;;;;;;2.70;2.20;;;25.40;99.90;;;;;;5100298;28;20201;-62
2022/06/11 08:49:54;;;;;;;7.72;2.80;;;25.50;99.90;;;;;;5114680;28;20194;-64
2022/06/11 08:52:25;;;;;;;6.47;2.42;;;26.60;99.90;;;;;;5103096;28;20201;-63
2022/06/11 08:54:52;;;;;;;4.05;2.35;;;26.20;99.90;;;;;;5086578;28;20196;-63
2022/06/11 08:57:36;;;;;;;3.20;2.45;;;26.20;99.90;;;;;;5118907;28;20201;-63
2022/06/11 09:00:17;;;;;;;3.58;2.38;;;26.60;99.90;;;;;;5117045;28;20177;-63
2022/06/11 09:03:12;;;;;;;6.43;3.22;;;26.90;99.90;;;;;;5113142;28;20225;-64
2022/06/11 09:06:04;;;;;;;4.40;2.20;;;25.80;99.90;;;;;;5115360;28;20189;-63
2022/06/11 09:08:37;;;;;;;9.30;2.85;;;25.90;99.90;;;;;;5113103;28;20194;-63
2022/06/11 09:11:23;;;;;;;7.15;2.78;;;25.80;99.90;;;;;;5112405;28;20221;-63
2022/06/11 09:14:11;;;;;;;4.45;2.50;;;25.50;99.90;;;;;;5099410;28;20767;-62
2022/06/11 09:16:50;;;;;;;6.78;2.80;;;25.50;99.90;;;;;;5100346;28;20205;-63
2022/06/11 09:19:34;;;;;;;3.90;2.33;;;25.60;99.90;;;;;;5098157;28;20854;-63
2022/06/11 09:22:07;;;;;;;6.70;2.65;;;26.90;99.90;;;;;;5099102;28;20243;-63
2022/06/11 09:24:56;;;;;;;4.57;2.25;;;28.00;99.90;;;;;;5113658;28;20250;-64
2022/06/11 09:27:40;;;;;;;5.35;2.55;;;29.10;99.90;;;;;;5115742;27;20687;-63
2022/06/11 09:30:41;;;;;;;5.65;2.47;;;28.60;99.90;;;;;;5119112;27;20238;-63
2022/06/11 09:33:28;;;;;;;4.10;2.35;;;27.90;99.90;;;;;;5117818;27;20188;-64
2022/06/11 09:36:06;;;;;;;4.22;2.60;;;27.60;99.90;;;;;;5116450;27;20231;-63
2022/06/11 09:39:06;;;;;;;4.72;2.50;;;27.30;99.90;;;;;;5095499;27;20220;-63
2022/06/11 09:41:33;;;;;;;3.65;2.63;;;28.80;99.90;;;;;;5077245;27;20237;-63
2022/06/11 09:44:25;;;;;;;8.60;3.35;;;30.10;99.90;;;;;;5098570;27;20229;-62
2022/06/11 09:47:32;;;;;;;6.20;3.50;;;31.10;99.90;;;;;;5116836;27;20297;-64
2022/06/11 09:50:14;;;;;;;10.40;8.32;;;31.00;99.90;;;;;;5113168;27;20716;-64
2022/06/11 09:52:43;;;;;;;13.55;10.93;;;31.50;99.90;;;;;;5107655;27;20200;-63
2022/06/11 09:55:37;;;;;;;4.90;2.78;;;31.00;99.90;;;;;;5115320;27;20255;-63
2022/06/11 09:58:11;;;;;;;6.22;4.00;;;30.80;99.90;;;;;;5068978;27;20265;-64
2022/06/11 10:01:00;;;;;;;6.65;2.65;;;30.10;99.90;;;;;;5110884;27;20626;-64
2022/06/11 10:03:48;;;;;;;4.03;2.70;;;30.60;99.90;;;;;;5112893;27;20193;-64
2022/06/11 10:06:23;;;;;;;5.20;2.60;;;30.60;99.90;;;;;;5115268;27;20286;-63
2022/06/11 10:09:00;;;;;;;5.55;3.53;;;31.10;99.90;;;;;;5111748;27;20188;-64
2022/06/11 10:11:39;;;;;;;4.75;3.67;;;29.90;99.90;;;;;;5092718;27;20192;-62
2022/06/11 10:14:30;;;;;;;5.05;2.53;;;30.30;99.90;;;;;;5114341;27;20217;-63
2022/06/11 10:17:05;;;;;;;4.40;3.03;;;30.70;99.90;;;;;;5114301;27;20246;-62
2022/06/11 10:19:53;;;;;;;3.70;2.88;;;31.00;99.90;;;;;;5108988;27;20252;-63
2022/06/11 10:22:40;;;;;;;4.60;2.70;;;30.90;99.90;;;;;;5110711;27;20213;-64
2022/06/11 10:25:18;;;;;;;3.42;2.00;;;29.50;99.90;;;;;;5110413;27;20652;-63
2022/06/11 10:27:53;;;;;;;4.28;2.85;;;30.50;99.90;;;;;;5116971;27;20227;-64
2022/06/11 10:30:34;;;;;;;4.18;2.00;;;31.30;99.90;;;;;;5095213;27;20201;-64
2022/06/11 10:33:06;;;;;;;4.05;2.03;;;29.40;99.90;;;;;;5096420;27;20194;-64
2022/06/11 10:35:49;;;;;;;3.63;2.10;;;29.70;99.90;;;;;;5098112;27;20203;-64
2022/06/11 10:38:22;;;;;;;4.20;2.67;;;29.20;99.90;;;;;;5111522;27;20286;-65
2022/06/11 10:40:51;;;;;;;4.95;2.60;;;28.70;99.90;;;;;;5109522;27;20213;-64
2022/06/11 10:43:53;;;;;;;4.90;4.25;;;27.90;99.90;;;;;;5077316;27;20200;-62
2022/06/11 10:46:24;;;;;;;6.25;4.07;;;27.20;99.90;;;;;;5114636;27;20196;-64
2022/06/11 10:48:56;;;;;;;6.95;4.63;;;26.80;99.90;;;;;;5105544;27;20216;-63
2022/06/11 10:51:35;;;;;;;7.18;6.15;;;26.60;99.90;;;;;;5095950;27;20209;-66
2022/06/11 10:54:27;;;;;;;5.80;3.63;;;26.40;99.90;;;;;;5096641;27;20213;-64
2022/06/11 10:57:09;;;;;;;5.25;3.40;;;26.60;99.90;;;;;;5100671;27;20201;-65
2022/06/11 10:59:48;;;;;;;4.93;3.17;;;27.20;99.90;;;;;;5075446;27;20288;-64
2022/06/11 11:02:21;;;;;;;9.43;5.32;;;28.90;99.90;;;;;;5111650;27;20214;-64
2022/06/11 11:05:09;;;;;;;7.75;4.18;;;30.30;99.90;;;;;;5109089;27;20209;-66
2022/06/11 11:08:09;;;;;;;3.30;2.20;;;31.00;99.90;;;;;;5092207;27;20189;-64
2022/06/11 11:10:47;;;;;;;7.75;3.42;;;32.50;99.90;;;;;;5092366;27;20197;-65
2022/06/11 11:13:25;;;;;;;3.45;2.45;;;33.20;99.90;;;;;;5107411;27;20192;-64
2022/06/11 11:16:05;;;;;;;7.55;3.40;;;32.70;99.90;;;;;;5076375;27;20591;-64
2022/06/11 11:19:10;;;;;;;;;;;;;;;;;;;;;
2022/06/11 11:21:55;;;;;;;4.28;2.75;;;32.90;99.90;;;;;;5082860;28;20316;-64
2022/06/11 11:24:42;;;;;;;3.03;2.28;;;32.00;99.90;;;;;;5092371;28;20863;-64
2022/06/11 11:27:20;;;;;;;4.47;2.55;;;32.20;99.90;;;;;;5087178;28;20198;-64
2022/06/11 11:30:00;;;;;;;5.63;2.63;;;33.20;99.90;;;;;;5085662;28;20300;-64
2022/06/11 11:32:35;;;;;;;3.85;2.78;;;32.40;99.90;;;;;;5082746;28;20300;-64
2022/06/11 11:35:15;;;;;;;6.07;2.85;;;31.90;99.90;;;;;;5085347;28;20232;-64
2022/06/11 11:37:42;;;;;;;3.97;3.15;;;30.50;99.90;;;;;;5065191;28;20633;-63
2022/06/11 11:40:27;;;;;;;5.85;3.10;;;29.10;99.90;;;;;;5087687;28;20198;-63
2022/06/11 11:43:03;;;;;;;3.45;2.92;;;29.80;99.90;;;;;;5090708;28;20720;-63
2022/06/11 11:45:43;;;;;;;6.53;3.25;;;31.20;99.90;;;;;;5085811;28;20193;-63
2022/06/11 11:48:30;;;;;;;4.22;2.90;;;32.10;99.90;;;;;;5086799;28;20691;-63
2022/06/11 11:51:07;;;;;;;5.05;3.00;;;31.70;99.90;;;;;;5089576;28;20776;-63
2022/06/11 11:53:43;;;;;;;5.88;3.22;;;30.20;99.90;;;;;;5095931;28;20201;-63
2022/06/11 11:56:37;;;;;;;3.72;2.90;;;29.80;99.90;;;;;;5105788;27;20194;-63
2022/06/11 11:59:20;;;;;;;4.55;3.03;;;30.00;99.90;;;;;;5088998;28;20327;-64
2022/06/11 12:01:49;;;;;;;4.13;2.90;;;29.50;99.90;;;;;;5090353;28;20291;-64
2022/06/11 12:04:19;;;;;;;5.72;2.97;;;30.30;99.90;;;;;;5080078;28;20193;-64
2022/06/11 12:07:11;;;;;;;8.75;3.35;;;31.50;99.90;;;;;;5084079;28;20201;-64
2022/06/11 12:09:53;;;;;;;8.82;5.43;;;32.30;99.90;;;;;;5086064;28;20185;-63
2022/06/11 12:12:41;;;;;;;14.30;8.73;;;30.90;99.90;;;;;;5092119;28;20189;-64
2022/06/11 12:15:14;;;;;;;7.22;3.65;;;29.80;99.90;;;;;;5088871;28;20193;-63
2022/06/11 12:17:52;;;;;;;5.78;3.92;;;29.60;99.90;;;;;;5096691;28;20237;-62
2022/06/11 12:20:41;;;;;;;5.57;2.88;;;28.80;99.90;;;;;;5089981;28;20289;-62
2022/06/11 12:23:17;;;;;;;6.93;4.88;;;29.40;99.90;;;;;;5097471;28;20225;-63
2022/06/11 12:26:01;;;;;;;11.30;4.72;;;28.50;99.90;;;;;;5113774;28;20181;-62
2022/06/11 12:28:40;;;;;;;5.10;3.95;;;29.10;99.90;;;;;;5113000;28;20202;-63
2022/06/11 12:31:15;;;;;;;4.90;3.72;;;29.30;99.90;;;;;;5111182;28;20231;-63
2022/06/11 12:33:44;;;;;;;6.38;3.72;;;27.90;99.90;;;;;;5108334;28;20204;-62
2022/06/11 12:36:36;;;;;;;4.10;3.53;;;28.80;99.90;;;;;;5105347;28;20251;-65
2022/06/11 12:39:15;;;;;;;6.03;4.15;;;30.00;99.90;;;;;;5090462;28;21186;-64
2022/06/11 12:42:11;;;;;;;4.43;3.17;;;29.50;99.90;;;;;;5104146;28;20257;-63
2022/06/11 12:44:42;;;;;;;6.60;3.10;;;29.90;99.90;;;;;;5108401;28;20292;-63
2022/06/11 12:47:11;;;;;;;5.20;3.13;;;29.80;99.90;;;;;;5106509;28;20197;-63
2022/06/11 12:49:52;;;;;;;4.63;3.15;;;29.50;99.90;;;;;;5108939;28;20189;-63
2022/06/11 12:52:54;;;;;;;9.07;3.83;;;29.10;99.90;;;;;;5105718;28;20993;-63
2022/06/11 12:55:57;;;;;;;9.48;3.70;;;29.50;99.90;;;;;;5081830;28;20208;-63
2022/06/11 12:58:43;;;;;;;4.68;3.58;;;29.40;99.90;;;;;;5111518;28;20336;-63
2022/06/11 13:01:30;;;;;;;6.82;3.78;;;29.50;99.90;;;;;;5099514;27;20193;-63
2022/06/11 13:04:27;;;;;;;5.03;3.75;;;28.80;99.90;;;;;;5113128;27;20189;-63
2022/06/11 13:07:15;;;;;;;6.60;4.00;;;28.70;99.90;;;;;;5115801;27;20200;-62
2022/06/11 13:10:03;;;;;;;6.55;3.33;;;28.60;99.90;;;;;;5112673;27;20197;-63
2022/06/11 13:12:58;;;;;;;6.53;2.67;;;28.70;99.90;;;;;;5112840;27;20198;-63
2022/06/11 13:15:46;;;;;;;4.03;3.15;;;28.60;99.90;;;;;;5103497;27;20197;-63
2022/06/11 13:18:37;;;;;;;5.55;3.15;;;28.30;99.90;;;;;;5115325;27;20718;-63
2022/06/11 13:21:37;;;;;;;3.95;2.63;;;28.50;99.90;;;;;;5113314;27;20219;-63
2022/06/11 13:24:25;;;;;;;6.40;2.88;;;28.30;99.90;;;;;;5091178;27;20213;-63
2022/06/11 13:27:01;;;;;;;5.93;3.00;;;28.60;99.90;;;;;;5117020;27;20225;-64
2022/06/11 13:30:06;;;;;;;5.28;3.13;;;28.70;99.90;;;;;;5113601;27;20204;-64
2022/06/11 13:32:56;;;;;;;3.88;2.92;;;28.50;99.90;;;;;;5032280;28;20204;-63
2022/06/11 13:35:44;;;;;;;5.38;2.78;;;28.50;99.90;;;;;;5014340;28;20199;-64